Time;durP1;ratioP1;P1;durP2;ratioP2;P2;SDS_P1;SDS_P2;PMS_P1;PMS_P2;Temp;Humidity;BMP_temperature;BMP_pressure;BME280_temperature;BME280_humidity;BME280_pressure;Samples;Min_cycle;Max_cycle;Signal;HPM_P1;HPM_P2
2023/10/05 00:01:56;;;;;;;4.40;1.95;;;16.70;99.90;;;;;;10050856;28;20044;-74
2023/10/05 00:06:48;;;;;;;4.82;2.60;;;16.70;99.90;;;;;;10046168;28;20045;-78
2023/10/05 00:11:44;;;;;;;4.88;1.98;;;16.70;99.90;;;;;;10041805;28;20029;-73
2023/10/05 00:16:37;;;;;;;6.47;2.65;;;16.60;99.90;;;;;;10025887;28;20042;-70
2023/10/05 00:21:32;;;;;;;5.22;2.33;;;16.60;99.90;;;;;;10034266;28;20029;-77
2023/10/05 00:26:28;;;;;;;3.90;1.88;;;16.50;99.90;;;;;;10059406;28;20532;-74
2023/10/05 00:31:23;;;;;;;6.80;2.72;;;16.40;99.90;;;;;;10058232;28;20045;-77
2023/10/05 00:36:15;;;;;;;5.00;2.22;;;16.40;99.90;;;;;;10058843;28;20072;-74
2023/10/05 00:41:09;;;;;;;4.85;2.28;;;16.40;99.90;;;;;;10059393;28;20017;-72
2023/10/05 00:45:59;;;;;;;4.18;1.90;;;16.40;99.90;;;;;;10058250;28;20043;-69
2023/10/05 00:50:51;;;;;;;7.05;2.75;;;16.30;99.90;;;;;;10049535;28;20040;-70
2023/10/05 00:55:45;;;;;;;4.97;2.85;;;16.20;99.90;;;;;;10051684;28;20033;-76
2023/10/05 01:00:50;;;;;;;5.90;2.47;;;16.20;99.90;;;;;;10044693;28;20219;-69
2023/10/05 01:05:50;;;;;;;4.87;2.70;;;16.30;99.90;;;;;;10048757;28;20042;-68
2023/10/05 01:10:43;;;;;;;7.32;2.50;;;16.20;99.90;;;;;;10042502;28;20044;-72
2023/10/05 01:15:33;;;;;;;3.85;2.05;;;16.20;99.90;;;;;;10048367;28;20052;-68
2023/10/05 01:20:25;;;;;;;5.03;2.30;;;16.20;99.90;;;;;;10037962;28;20025;-70
2023/10/05 01:25:16;;;;;;;3.22;1.80;;;16.00;99.90;;;;;;10057601;28;20033;-69
2023/10/05 01:30:08;;;;;;;3.63;1.80;;;16.00;99.90;;;;;;10052063;28;20148;-68
2023/10/05 01:35:00;;;;;;;3.17;2.03;;;16.00;99.90;;;;;;10056732;28;20037;-68
2023/10/05 01:39:50;;;;;;;4.30;2.20;;;15.90;99.90;;;;;;10055841;28;20399;-68
2023/10/05 01:44:41;;;;;;;6.72;2.15;;;15.80;99.90;;;;;;10056681;28;20037;-69
2023/10/05 01:49:32;;;;;;;3.38;2.03;;;15.80;99.90;;;;;;10056301;28;20036;-73
2023/10/05 01:54:26;;;;;;;5.82;2.28;;;15.80;99.90;;;;;;10056455;28;20056;-68
2023/10/05 01:59:21;;;;;;;5.63;2.53;;;15.70;99.90;;;;;;10055145;28;20028;-67
2023/10/05 02:04:11;;;;;;;4.30;1.98;;;15.70;99.90;;;;;;10049097;28;20040;-67
2023/10/05 02:09:04;;;;;;;3.22;1.83;;;15.60;99.90;;;;;;10056005;28;20090;-67
2023/10/05 02:14:01;;;;;;;4.38;2.08;;;15.60;99.90;;;;;;10054474;28;20099;-67
2023/10/05 02:18:55;;;;;;;6.00;2.17;;;15.60;99.90;;;;;;10054955;28;20025;-66
2023/10/05 02:23:50;;;;;;;5.60;1.98;;;15.50;99.90;;;;;;10054115;28;20046;-67
2023/10/05 02:28:41;;;;;;;4.32;1.65;;;15.50;99.90;;;;;;10054894;28;20076;-68
2023/10/05 02:33:32;;;;;;;4.45;2.15;;;15.50;99.90;;;;;;10055212;28;20040;-70
2023/10/05 02:38:23;;;;;;;2.55;2.00;;;15.50;99.90;;;;;;10057268;28;20036;-68
2023/10/05 02:43:15;;;;;;;2.92;1.90;;;15.60;99.90;;;;;;10065520;28;20132;-67
2023/10/05 02:48:09;;;;;;;2.83;1.52;;;15.50;99.90;;;;;;10062477;28;20021;-67
2023/10/05 02:53:04;;;;;;;5.20;2.38;;;15.50;99.90;;;;;;10062762;28;20091;-68
2023/10/05 02:57:55;;;;;;;4.23;2.20;;;15.60;99.90;;;;;;10063553;28;20032;-66
2023/10/05 03:02:49;;;;;;;4.43;1.83;;;15.40;99.90;;;;;;10062120;28;20052;-70
2023/10/05 03:07:41;;;;;;;2.35;1.30;;;15.40;99.90;;;;;;10053081;28;20388;-72
2023/10/05 03:12:32;;;;;;;4.55;2.13;;;15.30;99.90;;;;;;10039253;28;20041;-68
2023/10/05 03:17:26;;;;;;;2.65;1.65;;;15.50;99.90;;;;;;10029389;28;20083;-68
2023/10/05 03:22:16;;;;;;;4.20;2.15;;;15.50;99.90;;;;;;10061046;28;20401;-68
2023/10/05 03:27:08;;;;;;;3.95;1.48;;;15.40;99.90;;;;;;10060859;28;20140;-67
2023/10/05 03:32:13;;;;;;;4.20;1.90;;;15.30;99.90;;;;;;10059871;28;20511;-67
2023/10/05 03:37:08;;;;;;;2.67;1.95;;;15.30;99.90;;;;;;10060108;28;20032;-70
2023/10/05 03:42:00;;;;;;;2.65;1.73;;;15.30;99.90;;;;;;10046663;28;20111;-67
2023/10/05 03:46:51;;;;;;;4.25;2.35;;;15.30;99.90;;;;;;10046930;28;20037;-67
2023/10/05 03:51:49;;;;;;;1.90;1.48;;;15.30;99.90;;;;;;10056656;28;20404;-69
2023/10/05 03:56:42;;;;;;;1.98;1.58;;;15.30;99.90;;;;;;10056052;28;20051;-67
2023/10/05 04:01:32;;;;;;;3.10;1.80;;;15.20;99.90;;;;;;10036810;28;20021;-69
2023/10/05 04:06:28;;;;;;;3.30;1.55;;;15.20;99.90;;;;;;10042496;28;20051;-69
2023/10/05 04:11:21;;;;;;;2.97;1.88;;;15.30;99.90;;;;;;10025143;28;20504;-68
2023/10/05 04:16:17;;;;;;;2.75;1.58;;;15.20;99.90;;;;;;10030298;28;20100;-70
2023/10/05 04:21:10;;;;;;;5.00;2.08;;;15.20;99.90;;;;;;10046109;28;20169;-76
2023/10/05 04:26:01;;;;;;;2.88;2.05;;;15.20;99.90;;;;;;10059498;28;20568;-67
2023/10/05 04:30:52;;;;;;;4.45;1.75;;;15.10;99.90;;;;;;10058622;28;20496;-68
2023/10/05 04:35:45;;;;;;;2.47;2.03;;;15.10;99.90;;;;;;10059535;28;20108;-67
2023/10/05 04:40:38;;;;;;;2.63;1.88;;;15.00;99.90;;;;;;10046457;28;20441;-75
2023/10/05 04:45:28;;;;;;;4.47;1.77;;;15.00;99.90;;;;;;10042771;28;20135;-69
2023/10/05 04:50:19;;;;;;;4.13;2.13;;;15.10;99.90;;;;;;10054728;28;20123;-68
2023/10/05 04:55:23;;;;;;;4.40;2.50;;;15.10;99.90;;;;;;10051818;28;20644;-66
2023/10/05 05:05:40;;;;;;;5.13;2.58;;;15.00;99.90;;;;;;10037752;28;20474;-67
2023/10/05 05:10:31;;;;;;;4.93;2.95;;;15.00;99.90;;;;;;10047855;28;20372;-70
2023/10/05 05:15:22;;;;;;;4.60;2.60;;;14.90;99.90;;;;;;10035510;28;20124;-67
2023/10/05 05:20:15;;;;;;;4.13;2.03;;;14.90;99.90;;;;;;10057321;28;20203;-67
2023/10/05 05:25:06;;;;;;;5.45;3.30;;;14.90;99.90;;;;;;10057263;28;20037;-70
2023/10/05 05:29:57;;;;;;;9.05;3.85;;;14.90;99.90;;;;;;10057311;28;20045;-67
2023/10/05 05:34:50;;;;;;;7.38;3.80;;;14.90;99.90;;;;;;10057073;28;20034;-68
2023/10/05 05:39:41;;;;;;;7.05;3.90;;;14.80;99.90;;;;;;10057733;28;20117;-67
2023/10/05 05:44:34;;;;;;;7.95;3.35;;;14.80;99.90;;;;;;10056167;28;20124;-67
2023/10/05 05:49:27;;;;;;;5.30;2.33;;;14.80;99.90;;;;;;10056282;28;20027;-68
2023/10/05 05:54:18;;;;;;;5.35;2.75;;;14.90;99.90;;;;;;10056767;28;20060;-68
2023/10/05 05:59:09;;;;;;;8.30;2.90;;;14.80;99.90;;;;;;10054564;28;20064;-67
2023/10/05 06:04:00;;;;;;;3.65;2.70;;;14.70;99.90;;;;;;10055790;28;20065;-67
2023/10/05 06:08:50;;;;;;;3.58;1.60;;;14.70;99.90;;;;;;10056452;28;20033;-70
2023/10/05 06:13:45;;;;;;;3.70;2.83;;;14.60;99.90;;;;;;10057092;28;20132;-69
2023/10/05 06:18:36;;;;;;;2.80;1.90;;;14.60;99.90;;;;;;10063991;28;20407;-75
2023/10/05 06:23:27;;;;;;;5.10;2.85;;;14.50;99.90;;;;;;10064269;28;20086;-77
2023/10/05 06:28:18;;;;;;;3.63;2.22;;;14.50;99.90;;;;;;10063634;28;20056;-73
2023/10/05 06:33:09;;;;;;;4.55;2.28;;;14.50;99.90;;;;;;10062401;28;20044;-75
2023/10/05 06:37:59;;;;;;;4.22;2.65;;;14.40;99.90;;;;;;10064709;28;20032;-75
2023/10/05 06:42:51;;;;;;;6.30;2.63;;;14.40;99.90;;;;;;10063868;28;20177;-81
2023/10/05 06:47:43;;;;;;;5.60;2.25;;;14.50;99.90;;;;;;10061807;28;20026;-70
2023/10/05 06:52:37;;;;;;;4.43;2.33;;;14.50;99.90;;;;;;10065222;28;20079;-77
2023/10/05 06:57:28;;;;;;;3.72;2.38;;;14.40;99.90;;;;;;10061053;28;20099;-80
2023/10/05 07:02:21;;;;;;;6.85;3.63;;;14.60;99.90;;;;;;10049963;28;20061;-79
2023/10/05 07:07:14;;;;;;;3.50;2.40;;;14.70;99.90;;;;;;10054252;28;20599;-79
2023/10/05 07:12:05;;;;;;;5.10;2.75;;;14.70;99.90;;;;;;10054013;28;20018;-77
2023/10/05 07:16:55;;;;;;;4.00;2.38;;;14.70;99.90;;;;;;10057521;28;20029;-79
2023/10/05 07:21:46;;;;;;;3.97;2.67;;;14.70;99.90;;;;;;10061682;28;20037;-75
2023/10/05 07:26:37;;;;;;;5.53;2.30;;;14.70;99.90;;;;;;10061042;28;20045;-71
2023/10/05 07:31:27;;;;;;;4.07;2.15;;;14.80;99.90;;;;;;10063930;28;20052;-76
2023/10/05 07:36:18;;;;;;;5.47;2.45;;;14.80;99.90;;;;;;10053352;28;20033;-69
2023/10/05 07:41:09;;;;;;;6.50;2.75;;;14.80;99.90;;;;;;10059522;28;20036;-72
2023/10/05 07:46:04;;;;;;;4.22;2.45;;;14.80;99.90;;;;;;10059606;28;20047;-81
2023/10/05 07:50:54;;;;;;;7.00;2.53;;;14.80;99.90;;;;;;10057949;28;20395;-75
2023/10/05 07:55:45;;;;;;;6.00;2.67;;;14.90;99.90;;;;;;10060257;28;20056;-73
2023/10/05 08:00:36;;;;;;;6.90;3.53;;;14.80;99.90;;;;;;10055481;28;20479;-72
2023/10/05 08:05:26;;;;;;;8.38;2.55;;;14.90;99.90;;;;;;10060113;28;20132;-75
2023/10/05 08:10:18;;;;;;;4.65;2.13;;;15.00;99.90;;;;;;10059160;28;20029;-70
2023/10/05 08:15:12;;;;;;;5.60;2.20;;;15.00;99.90;;;;;;10060816;28;20029;-73
2023/10/05 08:20:05;;;;;;;5.30;2.97;;;15.20;99.90;;;;;;10058400;28;20026;-68
2023/10/05 08:24:57;;;;;;;5.47;2.97;;;15.20;99.90;;;;;;10059700;28;20037;-72
2023/10/05 08:29:47;;;;;;;6.03;2.42;;;15.40;99.90;;;;;;10059146;28;20175;-72
2023/10/05 08:34:40;;;;;;;6.00;2.88;;;15.40;99.90;;;;;;10055606;28;20175;-67
2023/10/05 08:39:35;;;;;;;4.35;2.72;;;15.50;99.90;;;;;;10059497;28;20121;-71
2023/10/05 08:44:26;;;;;;;5.45;2.75;;;15.50;99.90;;;;;;10054164;28;20037;-74
2023/10/05 08:49:17;;;;;;;7.93;2.65;;;15.60;99.90;;;;;;10059043;28;20033;-73
2023/10/05 08:54:11;;;;;;;5.18;2.13;;;15.70;99.90;;;;;;10063811;28;20115;-76
2023/10/05 08:59:07;;;;;;;4.10;2.08;;;15.70;99.90;;;;;;10057333;28;20550;-70
2023/10/05 09:04:04;;;;;;;6.75;2.47;;;15.80;99.90;;;;;;10058247;28;20052;-69
2023/10/05 09:09:07;;;;;;;3.05;2.25;;;15.80;99.90;;;;;;10055268;28;20026;-75
2023/10/05 09:19:24;;;;;;;6.38;2.33;;;15.90;99.90;;;;;;10040845;28;20034;-71
2023/10/05 09:24:21;;;;;;;4.32;2.22;;;15.90;99.90;;;;;;10055309;28;20403;-75
2023/10/05 09:29:30;;;;;;;3.85;2.42;;;15.90;99.90;;;;;;10054330;28;20052;-78
2023/10/05 09:34:39;;;;;;;3.15;2.10;;;15.90;99.90;;;;;;10053662;28;20025;-70
2023/10/05 09:39:59;;;;;;;3.42;2.53;;;16.00;99.90;;;;;;10056730;28;20547;-68
2023/10/05 09:44:51;;;;;;;5.78;2.03;;;16.10;99.90;;;;;;10053674;28;20107;-73
2023/10/05 09:49:45;;;;;;;4.13;2.45;;;16.20;99.90;;;;;;10056494;28;20502;-68
2023/10/05 09:54:37;;;;;;;7.28;2.20;;;16.20;99.90;;;;;;10057894;28;20426;-70
2023/10/05 09:59:31;;;;;;;6.18;2.47;;;16.20;99.90;;;;;;10056459;28;20502;-66
2023/10/05 10:04:37;;;;;;;5.72;2.67;;;16.30;99.90;;;;;;10056329;28;20152;-66
2023/10/05 10:09:28;;;;;;;9.70;3.53;;;16.40;99.90;;;;;;10053220;28;20053;-72
2023/10/05 10:14:22;;;;;;;5.72;3.22;;;16.50;99.90;;;;;;10062017;28;20232;-72
2023/10/05 10:19:19;;;;;;;6.43;3.15;;;16.50;99.90;;;;;;10055904;28;20022;-73
2023/10/05 10:24:19;;;;;;;12.27;3.03;;;16.60;99.90;;;;;;10055107;28;20194;-72
2023/10/05 10:29:11;;;;;;;6.15;3.08;;;16.70;99.90;;;;;;10056720;28;20044;-72
2023/10/05 10:34:18;;;;;;;5.32;3.15;;;16.70;99.90;;;;;;10054569;28;20477;-69
2023/10/05 10:39:30;;;;;;;7.03;2.40;;;16.80;99.90;;;;;;10044235;28;20052;-71
2023/10/05 10:44:22;;;;;;;4.70;2.97;;;16.90;99.90;;;;;;10053777;28;20154;-70
2023/10/05 10:49:17;;;;;;;5.47;3.05;;;16.80;99.90;;;;;;10055877;28;20395;-72
2023/10/05 10:54:14;;;;;;;4.32;2.50;;;16.80;99.90;;;;;;10060580;28;20035;-70
2023/10/05 10:59:13;;;;;;;6.15;2.90;;;16.90;99.90;;;;;;10048696;28;20033;-73
2023/10/05 11:04:04;;;;;;;5.40;2.78;;;17.00;99.90;;;;;;10063325;28;20041;-72
2023/10/05 11:09:09;;;;;;;4.53;2.50;;;16.90;99.90;;;;;;10060016;28;20052;-70
2023/10/05 11:14:05;;;;;;;5.30;2.22;;;17.00;99.90;;;;;;10048127;28;20593;-69
2023/10/05 11:19:00;;;;;;;4.07;1.85;;;16.90;99.90;;;;;;10057441;28;20538;-69
2023/10/05 11:23:56;;;;;;;7.15;1.88;;;17.00;99.90;;;;;;10063182;28;20573;-70
2023/10/05 11:28:49;;;;;;;5.35;2.42;;;17.10;99.90;;;;;;10059672;28;20132;-70
2023/10/05 11:33:41;;;;;;;4.47;2.90;;;17.30;99.90;;;;;;10058238;28;20616;-70
2023/10/05 11:38:31;;;;;;;3.72;1.75;;;17.40;99.90;;;;;;10059748;28;20022;-70
2023/10/05 11:43:31;;;;;;;5.55;2.20;;;17.50;99.90;;;;;;10058783;28;20045;-68
2023/10/05 11:48:48;;;;;;;6.05;2.85;;;17.50;99.90;;;;;;10060654;28;20026;-69
2023/10/05 11:53:39;;;;;;;4.78;2.47;;;17.60;99.90;;;;;;10058356;28;20614;-69
2023/10/05 11:58:37;;;;;;;5.20;2.38;;;17.70;99.90;;;;;;10060919;28;20033;-67
2023/10/05 12:03:27;;;;;;;4.72;2.67;;;17.70;99.90;;;;;;10061137;28;20038;-67
2023/10/05 12:08:19;;;;;;;8.10;2.72;;;17.70;99.90;;;;;;10060355;28;20037;-68
2023/10/05 12:13:09;;;;;;;5.30;2.72;;;17.90;99.90;;;;;;10058193;28;20410;-66
2023/10/05 12:18:00;;;;;;;4.43;2.67;;;17.90;99.90;;;;;;10059722;28;20040;-68
2023/10/05 12:22:50;;;;;;;4.93;1.77;;;17.90;99.90;;;;;;10054778;28;20038;-68
2023/10/05 12:27:41;;;;;;;4.65;3.28;;;17.90;99.90;;;;;;10060114;28;20578;-68
2023/10/05 12:32:35;;;;;;;7.97;2.80;;;17.90;99.90;;;;;;10054588;28;20049;-67
2023/10/05 12:37:26;;;;;;;7.32;2.67;;;18.00;99.90;;;;;;10058294;28;20113;-69
2023/10/05 12:42:17;;;;;;;3.72;1.70;;;18.00;99.90;;;;;;10054478;28;20032;-67
2023/10/05 12:47:07;;;;;;;6.82;2.25;;;18.00;99.90;;;;;;10054232;28;20040;-69
2023/10/05 12:51:58;;;;;;;4.07;2.17;;;18.10;99.90;;;;;;10056484;28;20033;-68
2023/10/05 12:56:49;;;;;;;6.78;2.88;;;18.10;99.90;;;;;;10055635;28;20029;-68
2023/10/05 13:01:41;;;;;;;6.88;3.20;;;18.10;99.90;;;;;;10057526;28;20340;-68
2023/10/05 13:06:32;;;;;;;12.95;3.50;;;18.10;99.90;;;;;;10059687;28;20454;-75
2023/10/05 13:11:23;;;;;;;6.75;2.42;;;18.00;99.90;;;;;;10058361;28;20499;-71
2023/10/05 13:16:14;;;;;;;5.72;1.83;;;18.00;99.90;;;;;;10055896;28;20045;-67
2023/10/05 13:21:09;;;;;;;5.40;1.70;;;18.00;99.90;;;;;;10054644;28;20272;-66
2023/10/05 13:26:01;;;;;;;5.35;2.72;;;18.10;99.90;;;;;;10057510;28;20041;-66
2023/10/05 13:30:51;;;;;;;5.53;2.33;;;18.10;99.90;;;;;;10057024;28;20087;-68
2023/10/05 13:35:42;;;;;;;5.35;2.42;;;18.20;99.90;;;;;;10057018;28;20824;-68
2023/10/05 13:40:36;;;;;;;6.72;3.05;;;18.20;99.90;;;;;;10056954;28;20032;-68
2023/10/05 13:45:28;;;;;;;4.40;2.08;;;18.20;99.90;;;;;;10039279;28;20049;-67
2023/10/05 13:50:22;;;;;;;7.93;2.15;;;18.20;99.90;;;;;;10055631;28;20033;-67
2023/10/05 13:55:14;;;;;;;5.15;2.22;;;18.20;99.90;;;;;;10057210;28;20124;-68
2023/10/05 14:00:17;;;;;;;6.10;2.22;;;18.20;99.90;;;;;;10056184;28;20014;-67
2023/10/05 14:05:08;;;;;;;3.63;2.17;;;18.30;99.90;;;;;;10056357;28;20116;-68
2023/10/05 14:09:59;;;;;;;7.40;2.17;;;18.30;99.90;;;;;;10054337;28;20116;-69
2023/10/05 14:14:49;;;;;;;6.10;2.85;;;18.50;99.90;;;;;;10030834;28;20629;-68
2023/10/05 14:19:40;;;;;;;3.95;2.35;;;18.50;99.90;;;;;;10045581;28;20029;-69
2023/10/05 14:24:34;;;;;;;6.28;2.70;;;18.70;99.90;;;;;;10055600;28;20122;-68
2023/10/05 14:29:34;;;;;;;8.75;2.75;;;18.70;99.90;;;;;;10055578;28;20089;-69
2023/10/05 14:34:26;;;;;;;5.15;2.40;;;18.70;99.90;;;;;;10057186;28;20053;-68
2023/10/05 14:39:23;;;;;;;7.47;2.30;;;18.90;99.90;;;;;;10063333;28;20107;-70
2023/10/05 14:44:14;;;;;;;6.43;2.25;;;18.90;99.90;;;;;;10060523;28;20091;-70
2023/10/05 14:49:04;;;;;;;3.55;2.08;;;19.00;99.90;;;;;;10063169;28;20026;-67
2023/10/05 14:53:55;;;;;;;5.88;2.67;;;18.80;99.90;;;;;;10055984;28;20422;-71
2023/10/05 14:58:47;;;;;;;4.53;2.05;;;18.80;99.90;;;;;;10062534;28;20048;-71
2023/10/05 15:03:38;;;;;;;5.15;2.28;;;18.80;99.90;;;;;;10062747;28;20057;-66
2023/10/05 15:08:30;;;;;;;10.20;2.47;;;18.80;99.90;;;;;;10062428;28;20132;-68
2023/10/05 15:13:21;;;;;;;4.88;2.25;;;18.80;99.90;;;;;;10062110;28;20029;-68
2023/10/05 15:18:12;;;;;;;6.00;2.30;;;18.80;99.90;;;;;;10061868;28;20161;-67
2023/10/05 15:23:03;;;;;;;5.50;2.05;;;18.80;99.90;;;;;;10062142;28;20057;-67
2023/10/05 15:27:54;;;;;;;5.93;2.67;;;18.80;99.90;;;;;;10061802;28;20049;-67
2023/10/05 15:32:49;;;;;;;5.90;3.03;;;18.80;99.90;;;;;;10058598;28;20041;-68
2023/10/05 15:37:43;;;;;;;5.88;2.28;;;18.80;99.90;;;;;;10060547;28;20532;-70
2023/10/05 15:42:34;;;;;;;4.70;2.20;;;18.80;99.90;;;;;;10059848;28;20069;-69
2023/10/05 15:47:24;;;;;;;7.82;3.60;;;18.80;99.90;;;;;;10072629;28;20080;-69
2023/10/05 15:52:16;;;;;;;8.27;3.20;;;18.80;99.90;;;;;;10060260;28;20479;-71
2023/10/05 15:57:07;;;;;;;7.45;2.53;;;18.90;99.90;;;;;;10061260;28;20064;-70
2023/10/05 16:01:57;;;;;;;6.47;2.65;;;18.90;99.90;;;;;;10062001;28;20625;-68
2023/10/05 16:06:48;;;;;;;6.30;2.75;;;18.90;99.90;;;;;;10062915;28;20044;-70
2023/10/05 16:11:39;;;;;;;8.25;3.08;;;19.00;99.90;;;;;;10062438;28;20037;-69
2023/10/05 16:16:29;;;;;;;10.40;3.22;;;19.00;99.90;;;;;;10060357;28;20515;-65
2023/10/05 16:21:23;;;;;;;4.57;2.58;;;19.00;99.90;;;;;;10060211;28;20033;-68
2023/10/05 16:26:14;;;;;;;5.30;2.50;;;19.00;99.90;;;;;;10057314;28;20033;-66
2023/10/05 16:31:05;;;;;;;12.40;3.50;;;18.90;99.90;;;;;;10056770;28;20050;-67
2023/10/05 16:35:56;;;;;;;8.93;2.90;;;18.90;99.90;;;;;;10056614;28;21305;-69
2023/10/05 16:40:47;;;;;;;5.82;3.13;;;18.80;99.90;;;;;;10058350;28;20152;-71
2023/10/05 16:45:39;;;;;;;8.48;3.92;;;18.70;99.90;;;;;;10058910;28;20033;-69
2023/10/05 16:50:31;;;;;;;7.38;3.88;;;18.70;99.90;;;;;;10059682;28;20037;-70
2023/10/05 16:55:22;;;;;;;6.90;2.88;;;18.70;99.90;;;;;;10056528;28;20156;-67
2023/10/05 17:00:16;;;;;;;7.78;2.67;;;18.60;99.90;;;;;;10055798;28;20120;-67
2023/10/05 17:05:13;;;;;;;5.97;2.70;;;18.50;99.90;;;;;;10058653;28;20053;-71
2023/10/05 17:10:04;;;;;;;6.45;2.95;;;18.50;99.90;;;;;;10058373;28;20349;-67
2023/10/05 17:14:54;;;;;;;8.88;2.72;;;18.50;99.90;;;;;;10056965;28;20028;-66
2023/10/05 17:19:46;;;;;;;9.57;3.17;;;18.40;99.90;;;;;;10054034;28;20055;-67
2023/10/05 17:24:38;;;;;;;9.75;3.75;;;18.40;99.90;;;;;;10058091;28;20127;-66
2023/10/05 17:29:30;;;;;;;7.93;2.97;;;18.40;99.90;;;;;;10056612;28;20506;-66
2023/10/05 17:34:21;;;;;;;9.65;3.40;;;18.40;99.90;;;;;;10057948;28;20518;-71
2023/10/05 17:39:13;;;;;;;9.57;4.03;;;18.30;99.90;;;;;;10065258;28;20040;-68
2023/10/05 17:44:04;;;;;;;8.57;4.22;;;18.30;99.90;;;;;;10056519;28;20025;-72
2023/10/05 17:48:58;;;;;;;8.73;3.42;;;18.30;99.90;;;;;;10061238;28;20083;-69
2023/10/05 17:53:48;;;;;;;10.77;4.82;;;18.30;99.90;;;;;;10054865;28;20529;-66
2023/10/05 17:58:41;;;;;;;9.30;4.10;;;18.30;99.90;;;;;;10048649;28;20034;-65
2023/10/05 18:03:32;;;;;;;7.20;3.90;;;18.30;99.90;;;;;;10043135;28;20041;-66
2023/10/05 18:08:24;;;;;;;7.22;4.13;;;18.20;99.90;;;;;;10053248;28;20042;-66
2023/10/05 18:13:15;;;;;;;12.52;4.07;;;18.30;99.90;;;;;;10061203;28;20034;-66
2023/10/05 18:18:09;;;;;;;8.70;5.15;;;18.20;99.90;;;;;;10061918;28;20022;-67
2023/10/05 18:22:59;;;;;;;11.77;4.85;;;18.20;99.90;;;;;;10063860;28;20121;-67
2023/10/05 18:27:50;;;;;;;11.95;4.38;;;18.20;99.90;;;;;;10065502;28;20132;-67
2023/10/05 18:32:41;;;;;;;12.52;6.22;;;18.10;99.90;;;;;;10064989;28;20438;-68
2023/10/05 18:37:32;;;;;;;11.57;5.43;;;18.10;99.90;;;;;;10066095;28;20026;-68
2023/10/05 18:42:23;;;;;;;11.43;4.20;;;18.20;99.90;;;;;;10063367;28;20444;-67
2023/10/05 18:47:13;;;;;;;11.80;3.92;;;18.10;99.90;;;;;;10061793;28;20044;-68
2023/10/05 18:52:04;;;;;;;12.18;5.10;;;18.00;99.90;;;;;;10064816;28;20048;-69
2023/10/05 18:56:55;;;;;;;8.30;3.80;;;18.00;99.90;;;;;;10058204;28;20506;-74
2023/10/05 19:01:45;;;;;;;7.18;4.00;;;18.00;99.90;;;;;;10062261;28;20021;-68
2023/10/05 19:06:36;;;;;;;8.77;3.85;;;18.00;99.90;;;;;;10061337;28;20076;-68
2023/10/05 19:11:27;;;;;;;11.40;3.80;;;18.00;99.90;;;;;;10060482;28;20021;-67
2023/10/05 19:16:17;;;;;;;10.35;3.83;;;17.90;99.90;;;;;;10053343;28;20683;-67
2023/10/05 19:21:14;;;;;;;8.63;3.72;;;17.90;99.90;;;;;;10049111;28;20029;-67
2023/10/05 19:26:05;;;;;;;10.95;4.30;;;17.80;99.90;;;;;;10060631;28;20037;-68
2023/10/05 19:31:01;;;;;;;10.68;4.57;;;17.80;99.90;;;;;;10061751;28;20049;-71
2023/10/05 19:35:52;;;;;;;9.10;4.32;;;17.80;99.90;;;;;;10050490;28;20029;-71
2023/10/05 19:40:43;;;;;;;7.97;4.32;;;17.70;99.90;;;;;;10034759;28;20057;-71
2023/10/05 19:45:33;;;;;;;6.43;3.72;;;17.70;99.90;;;;;;10034857;28;20041;-65
2023/10/05 19:50:24;;;;;;;8.20;3.78;;;17.70;99.90;;;;;;10032812;28;20041;-68
2023/10/05 19:55:14;;;;;;;5.18;3.08;;;17.70;99.90;;;;;;10043678;28;20033;-72
2023/10/05 20:00:12;;;;;;;12.52;5.00;;;17.70;99.90;;;;;;10044239;28;20031;-67
2023/10/05 20:05:04;;;;;;;10.13;5.63;;;17.60;99.90;;;;;;10042586;28;20117;-69
2023/10/05 20:09:56;;;;;;;9.07;4.85;;;17.60;99.90;;;;;;10037329;28;20051;-66
2023/10/05 20:14:47;;;;;;;7.65;4.03;;;17.50;99.90;;;;;;10048497;28;20029;-66
2023/10/05 20:19:37;;;;;;;9.20;5.35;;;17.50;99.90;;;;;;10047870;28;20029;-66
2023/10/05 20:24:28;;;;;;;11.10;4.30;;;17.50;99.90;;;;;;10061667;28;20043;-75
2023/10/05 20:29:25;;;;;;;11.20;5.13;;;17.50;99.90;;;;;;10062697;28;20057;-68
2023/10/05 20:34:15;;;;;;;12.32;5.22;;;17.40;99.90;;;;;;10060404;28;20040;-68
2023/10/05 20:39:08;;;;;;;9.05;4.78;;;17.30;99.90;;;;;;10060071;28;20021;-67
2023/10/05 20:43:59;;;;;;;14.48;6.22;;;17.40;99.90;;;;;;10054332;28;20114;-67
2023/10/05 20:48:50;;;;;;;10.48;5.18;;;17.30;99.90;;;;;;10055504;28;20527;-67
2023/10/05 20:53:40;;;;;;;11.82;5.85;;;17.30;99.90;;;;;;10055937;28;20131;-66
2023/10/05 20:58:31;;;;;;;10.50;6.25;;;17.30;99.90;;;;;;10056253;28;20029;-67
2023/10/05 21:03:21;;;;;;;10.35;5.22;;;17.20;99.90;;;;;;10055462;28;20041;-68
2023/10/05 21:08:12;;;;;;;11.63;6.10;;;17.10;99.90;;;;;;10057650;28;20413;-66
2023/10/05 21:13:03;;;;;;;13.82;5.95;;;17.10;99.90;;;;;;10048068;28;20494;-66
2023/10/05 21:17:54;;;;;;;12.57;5.68;;;17.20;99.90;;;;;;10058544;28;20073;-67
2023/10/05 21:22:45;;;;;;;9.90;5.25;;;17.10;99.90;;;;;;10058403;28;20038;-67
2023/10/05 21:27:36;;;;;;;14.88;6.53;;;17.10;99.90;;;;;;10058873;28;20056;-66
2023/10/05 21:32:28;;;;;;;13.73;6.57;;;17.00;99.90;;;;;;10052690;28;20050;-67
2023/10/05 21:37:18;;;;;;;14.48;6.40;;;16.90;99.90;;;;;;10059581;28;20682;-67
2023/10/05 21:42:09;;;;;;;11.05;6.78;;;17.00;99.90;;;;;;10067599;28;20299;-67
2023/10/05 21:47:00;;;;;;;12.02;6.35;;;16.90;99.90;;;;;;10056584;28;20038;-71
2023/10/05 21:51:51;;;;;;;14.63;7.05;;;16.90;99.90;;;;;;10056344;28;20021;-67
2023/10/05 21:56:42;;;;;;;11.73;6.53;;;16.90;99.90;;;;;;10056165;28;20025;-66
2023/10/05 22:01:32;;;;;;;12.90;5.28;;;16.80;99.90;;;;;;10055417;28;20040;-70
2023/10/05 22:06:23;;;;;;;12.30;5.75;;;16.70;99.90;;;;;;10054846;28;20052;-67
2023/10/05 22:11:14;;;;;;;15.73;5.45;;;16.70;99.90;;;;;;10060540;28;20025;-67
2023/10/05 22:16:05;;;;;;;14.52;6.25;;;16.60;99.90;;;;;;10054150;28;20044;-70
2023/10/05 22:20:56;;;;;;;13.20;5.78;;;16.50;99.90;;;;;;10055921;28;20022;-72
2023/10/05 22:25:46;;;;;;;11.68;5.60;;;16.50;99.90;;;;;;10057449;28;20048;-67
2023/10/05 22:30:37;;;;;;;9.95;4.45;;;16.50;99.90;;;;;;10055190;28;20052;-67
2023/10/05 22:35:28;;;;;;;7.82;4.40;;;16.50;99.90;;;;;;10056005;28;20045;-66
2023/10/05 22:40:18;;;;;;;8.93;4.05;;;16.50;99.90;;;;;;10056476;28;20026;-69
2023/10/05 22:45:10;;;;;;;7.45;4.13;;;16.40;99.90;;;;;;10055802;28;20557;-69
2023/10/05 22:50:01;;;;;;;9.63;3.67;;;16.30;99.90;;;;;;10056562;28;20120;-70
2023/10/05 22:54:55;;;;;;;7.70;3.85;;;16.40;99.90;;;;;;10057121;28;20132;-68
2023/10/05 22:59:45;;;;;;;8.00;3.33;;;16.40;99.90;;;;;;10061995;28;20426;-73
2023/10/05 23:04:36;;;;;;;9.13;3.42;;;16.30;99.90;;;;;;10063102;28;20049;-67
2023/10/05 23:09:27;;;;;;;6.07;2.97;;;16.20;99.90;;;;;;10063942;28;20040;-66
2023/10/05 23:14:18;;;;;;;8.13;3.20;;;16.10;99.90;;;;;;10064180;28;20387;-66
2023/10/05 23:19:11;;;;;;;6.20;3.38;;;16.10;99.90;;;;;;10061811;28;20105;-68
2023/10/05 23:24:03;;;;;;;7.57;3.00;;;16.10;99.90;;;;;;10062674;28;20037;-65
2023/10/05 23:29:03;;;;;;;6.85;3.30;;;16.10;99.90;;;;;;10063174;28;20514;-67
2023/10/05 23:33:53;;;;;;;5.78;2.70;;;16.00;99.90;;;;;;10061449;28;20033;-66
2023/10/05 23:38:44;;;;;;;9.05;3.63;;;16.00;99.90;;;;;;10061022;28;20495;-67
2023/10/05 23:43:38;;;;;;;6.93;3.03;;;16.00;99.90;;;;;;10061775;28;20041;-67
2023/10/05 23:48:30;;;;;;;9.05;3.58;;;15.90;99.90;;;;;;10062081;28;20025;-67
2023/10/05 23:53:20;;;;;;;6.07;3.00;;;15.90;99.90;;;;;;10061291;28;20052;-66
2023/10/05 23:58:15;;;;;;;6.72;3.17;;;16.00;99.90;;;;;;10060750;28;20026;-67
